createdAt,value
2018-11-28T00:02:35.135Z,16.13
2018-11-28T00:07:38.498Z,16.60
2018-11-28T00:12:42.026Z,12.43
2018-11-28T01:49:46.604Z,14.53
2018-11-28T01:54:49.946Z,11.23
2018-11-28T01:59:53.307Z,9.73
2018-11-28T03:31:13.506Z,7.93
2018-11-28T03:36:16.868Z,6.57
2018-11-28T03:41:20.221Z,7.97
2018-11-28T04:49:40.959Z,9.00
2018-11-28T04:54:45.075Z,9.77
2018-11-28T04:59:48.428Z,10.67
2018-11-28T05:33:36.795Z,9.27
2018-11-28T05:38:40.145Z,8.67
2018-11-28T05:43:43.495Z,9.90
2018-11-28T05:48:46.842Z,9.73
2018-11-28T05:53:50.204Z,10.60
2018-11-28T05:58:53.577Z,10.07
2018-11-28T06:03:56.914Z,10.67
2018-11-28T06:09:00.269Z,10.50
2018-11-28T06:14:04.384Z,11.43
2018-11-28T06:19:07.735Z,10.53
2018-11-28T06:24:13.061Z,10.57
2018-11-28T06:29:17.108Z,11.97
2018-11-28T06:34:21.214Z,12.73
2018-11-28T06:39:24.568Z,14.30
2018-11-28T06:44:27.907Z,12.80
2018-11-28T06:49:31.264Z,12.17
2018-11-28T06:54:34.617Z,11.83
2018-11-28T06:59:38.477Z,13.70
2018-11-28T07:04:42.121Z,13.60
2018-11-28T07:09:45.469Z,17.73
2018-11-28T07:14:48.821Z,24.33
2018-11-28T07:19:52.161Z,22.93
2018-11-28T07:24:55.577Z,22.33
2018-11-28T07:29:58.922Z,20.97
2018-11-28T08:03:47.798Z,26.33
2018-11-28T08:08:51.928Z,23.87
2018-11-28T08:13:56.046Z,25.63
2018-11-28T09:05:06.569Z,23.40
2018-11-28T09:10:18.266Z,21.40
2018-11-28T10:01:23.770Z,19.63
2018-11-28T10:06:29.867Z,24.97
2018-11-28T10:11:33.226Z,21.03
2018-11-28T11:02:39.870Z,15.57
2018-11-28T11:07:49.418Z,17.70
2018-11-28T11:12:53.628Z,21.53
2018-11-28T12:03:58.249Z,23.87
2018-11-28T12:09:01.606Z,23.47
2018-11-28T12:14:04.966Z,22.37
2018-11-28T13:05:14.178Z,22.60
2018-11-28T13:10:24.245Z,26.30
2018-11-28T14:01:30.223Z,23.00
2018-11-28T14:06:33.602Z,25.20
2018-11-28T14:11:37.776Z,22.30
2018-11-28T15:02:42.973Z,21.43
2018-11-28T15:07:46.309Z,24.93
2018-11-28T15:12:49.666Z,24.40
2018-11-28T15:46:39.604Z,23.67
2018-11-28T15:51:44.434Z,23.90
2018-11-28T15:56:48.727Z,26.20
2018-11-28T16:31:04.277Z,21.63
2018-11-28T16:36:07.630Z,18.30
2018-11-28T16:41:11.809Z,18.90
2018-11-28T16:46:22.031Z,18.43
2018-11-28T16:51:26.053Z,18.97
2018-11-28T16:56:31.309Z,24.13
2018-11-28T17:01:36.374Z,21.17
2018-11-28T17:06:42.557Z,22.47
2018-11-28T17:11:46.551Z,20.80
2018-11-28T17:16:51.966Z,19.07
2018-11-28T17:21:57.374Z,18.93
2018-11-28T17:27:00.712Z,20.67
2018-11-28T17:32:04.089Z,19.97
2018-11-28T17:37:07.440Z,20.80
2018-11-28T17:42:10.806Z,22.57
2018-11-28T17:47:14.147Z,19.50
2018-11-28T17:52:25.994Z,17.93
2018-11-28T18:09:15.683Z,30.40
2018-11-28T18:14:19.769Z,21.50
2018-11-28T18:19:23.089Z,22.33
2018-11-28T18:24:32.472Z,23.07
2018-11-28T18:29:38.528Z,22.57
2018-11-28T18:34:42.393Z,25.40
2018-11-28T18:39:56.541Z,25.30
2018-11-28T18:45:00.395Z,28.10
2018-11-28T18:50:05.166Z,25.10
2018-11-28T19:00:51.308Z,24.57
2018-11-28T19:05:54.890Z,25.03
2018-11-28T19:10:59.232Z,23.07
2018-11-28T19:16:02.632Z,26.53
2018-11-28T19:21:06.181Z,24.10
2018-11-28T19:26:09.668Z,23.07
2018-11-28T19:31:17.167Z,26.53
2018-11-28T19:36:28.581Z,23.03
2018-11-28T19:41:40.237Z,26.20
2018-11-28T19:46:43.590Z,26.63
2018-11-28T19:51:46.917Z,27.93
2018-11-28T19:56:50.249Z,33.00
2018-11-28T20:01:53.608Z,27.03
2018-11-28T20:06:57.722Z,28.30
2018-11-28T20:12:01.055Z,26.83
2018-11-28T20:17:04.417Z,24.90
2018-11-28T20:22:08.559Z,26.90
2018-11-28T20:27:12.358Z,23.57
2018-11-28T20:32:21.146Z,28.57
2018-11-28T20:37:25.367Z,26.40
2018-11-28T20:42:28.695Z,26.43
2018-11-28T20:47:32.810Z,28.50
2018-11-28T20:52:36.903Z,26.60
2018-11-28T20:57:40.249Z,27.53
2018-11-28T21:02:43.600Z,29.30
2018-11-28T21:07:46.922Z,24.43
2018-11-28T21:12:50.268Z,26.70
2018-11-28T21:17:53.614Z,28.57
2018-11-28T21:22:56.999Z,29.27
2018-11-28T21:28:00.439Z,28.17
2018-11-28T21:33:04.525Z,25.63
2018-11-28T21:38:07.905Z,26.47
2018-11-28T21:43:11.237Z,26.33
2018-11-28T21:48:14.562Z,23.50
2018-11-28T21:53:17.888Z,23.43
2018-11-28T21:58:21.253Z,24.37
2018-11-28T22:03:24.626Z,24.63
2018-11-28T22:08:28.748Z,24.80
2018-11-28T22:13:32.841Z,24.90
2018-11-28T22:18:36.171Z,25.70
2018-11-28T22:23:39.505Z,28.17
2018-11-28T22:28:42.833Z,23.93
2018-11-28T22:33:46.155Z,24.23
2018-11-28T22:38:49.484Z,22.97
2018-11-28T22:43:52.825Z,23.77
2018-11-28T22:48:56.232Z,24.03
2018-11-28T22:53:59.548Z,23.20
2018-11-28T22:59:02.899Z,25.00
2018-11-28T23:04:06.986Z,27.77
2018-11-28T23:09:10.328Z,23.07
2018-11-28T23:14:14.432Z,22.60
2018-11-28T23:19:17.766Z,22.40
2018-11-28T23:24:21.088Z,21.83
2018-11-28T23:29:24.458Z,23.80
2018-11-28T23:34:27.789Z,23.70
2018-11-28T23:39:31.900Z,22.37
2018-11-28T23:44:35.253Z,26.63
2018-11-28T23:49:38.589Z,25.47
2018-11-28T23:54:42.228Z,22.83
2018-11-28T23:59:45.560Z,26.23
